Terminal Aerodrome Forecast
Issued by NWS Charleston, WV

Current Version | Previous Version | Text Only | Print | Product List | Glossary Off
Versions: 1 2 3 4 5 6 7 8 9 10 11 12 13 14 15 16 17 18 19 20 21 22 23 24 25 26 27 28 29 30 31 32 33

000
FTUS41 KRLX 230200 AAA
TAFCRW
TAF AMD
KCRW 230254Z 2303/2324 VRB03KT P6SM OVC020
     FM231300 32005KT P6SM BKN015 OVC025
     FM231700 31006KT P6SM BKN025
     FM232000 30005KT P6SM SCT025=

USA.gov is the U.S. government's official web portal to all federal, state and local government web resources and services.